createdAt,value
2023-01-23T00:00:22.921Z,2.98
2023-01-23T00:05:24.613Z,2.92
2023-01-23T00:10:26.072Z,2.91
2023-01-23T00:15:27.561Z,2.87
2023-01-23T00:20:28.980Z,2.94
2023-01-23T00:25:30.531Z,2.95
2023-01-23T00:30:32.337Z,2.97
2023-01-23T00:35:36.884Z,2.86
2023-01-23T00:40:38.372Z,2.93
2023-01-23T00:45:39.767Z,3.14
2023-01-23T00:50:41.239Z,3.30
2023-01-23T00:55:42.951Z,3.34
2023-01-23T01:00:44.503Z,3.23
2023-01-23T01:05:46.417Z,3.37
2023-01-23T01:10:47.972Z,3.30
2023-01-23T01:15:51.127Z,3.26
2023-01-23T01:20:52.607Z,3.34
2023-01-23T01:25:58.804Z,3.43
2023-01-23T01:31:12.307Z,3.30
2023-01-23T01:36:20.768Z,3.46
2023-01-23T01:41:22.385Z,3.39
2023-01-23T01:46:26.646Z,3.63
2023-01-23T01:51:36.862Z,3.41
2023-01-23T01:56:47.233Z,3.33
2023-01-23T02:01:53.552Z,3.34
2023-01-23T02:06:55.854Z,3.36
2023-01-23T02:11:57.279Z,3.35
2023-01-23T02:16:58.784Z,3.39
2023-01-23T02:22:11.955Z,3.36
2023-01-23T02:27:13.510Z,3.24
2023-01-23T02:32:15.061Z,3.28
2023-01-23T02:37:17.309Z,3.29
2023-01-23T02:42:19.893Z,3.27
2023-01-23T02:47:21.560Z,3.31
2023-01-23T02:52:23.121Z,3.34
2023-01-23T02:57:24.633Z,3.31
2023-01-23T03:02:26.277Z,3.25
2023-01-23T03:07:27.739Z,3.21
2023-01-23T03:12:29.136Z,3.28
2023-01-23T03:17:30.935Z,3.19
2023-01-23T03:22:32.433Z,3.19
2023-01-23T03:27:33.887Z,3.09
2023-01-23T03:32:35.517Z,2.97
2023-01-23T03:37:36.933Z,2.83
2023-01-23T03:42:38.376Z,2.67
2023-01-23T03:47:39.940Z,2.52
2023-01-23T03:52:41.407Z,2.56
2023-01-23T03:57:42.947Z,2.61
2023-01-23T04:02:44.804Z,2.72
2023-01-23T04:07:46.237Z,2.66
2023-01-23T04:12:47.745Z,2.52
2023-01-23T04:17:49.398Z,2.52
2023-01-23T04:22:50.830Z,2.42
2023-01-23T04:27:52.293Z,2.39
2023-01-23T04:32:53.984Z,2.73
2023-01-23T04:37:55.603Z,2.81
2023-01-23T04:42:57.211Z,2.59
2023-01-23T04:47:58.751Z,2.89
2023-01-23T04:53:00.150Z,3.04
2023-01-23T04:58:01.782Z,2.88
2023-01-23T05:03:04.052Z,2.88
2023-01-23T05:08:06.067Z,3.04
2023-01-23T05:13:07.559Z,2.88
2023-01-23T05:18:09.103Z,2.91
2023-01-23T05:23:10.533Z,3.00
2023-01-23T05:28:11.996Z,2.98
2023-01-23T05:33:13.557Z,3.06
2023-01-23T05:38:14.971Z,3.15
2023-01-23T05:43:16.821Z,3.22
2023-01-23T05:48:18.290Z,3.24
2023-01-23T05:53:19.818Z,3.26
2023-01-23T05:58:21.605Z,3.05
2023-01-23T06:03:23.168Z,2.97
2023-01-23T06:08:24.749Z,3.00
2023-01-23T06:13:27.357Z,2.94
2023-01-23T06:18:29.075Z,2.88
2023-01-23T06:23:30.785Z,2.95
2023-01-23T06:28:32.317Z,2.87
2023-01-23T06:33:33.808Z,3.19
2023-01-23T06:38:35.447Z,3.25
2023-01-23T06:43:36.865Z,3.33
2023-01-23T06:48:38.837Z,3.29
2023-01-23T06:53:40.313Z,3.20
2023-01-23T06:58:45.258Z,3.30
2023-01-23T07:03:46.791Z,3.24
2023-01-23T07:08:48.205Z,3.35
2023-01-23T07:13:49.673Z,3.27
2023-01-23T07:18:51.178Z,3.38
2023-01-23T07:23:52.827Z,3.28
2023-01-23T07:28:54.296Z,3.49
2023-01-23T07:33:55.752Z,3.43
2023-01-23T07:38:57.349Z,3.24
2023-01-23T07:43:58.829Z,3.28
2023-01-23T07:49:00.248Z,3.46
2023-01-23T07:54:01.642Z,3.39
2023-01-23T07:59:03.162Z,3.45
2023-01-23T08:04:04.912Z,3.43
2023-01-23T08:09:06.421Z,3.47
2023-01-23T08:14:07.803Z,3.61
2023-01-23T08:19:09.246Z,3.69
2023-01-23T08:24:14.792Z,3.64
2023-01-23T08:29:16.329Z,3.55
2023-01-23T08:34:17.963Z,3.55
2023-01-23T08:39:20.132Z,3.43
2023-01-23T08:44:22.837Z,3.58
2023-01-23T08:49:24.378Z,3.68
2023-01-23T08:54:25.939Z,3.84
2023-01-23T08:59:28.771Z,3.71
2023-01-23T09:04:30.338Z,3.72
2023-01-23T09:09:32.067Z,3.74
2023-01-23T09:14:33.581Z,3.79
2023-01-23T09:19:35.108Z,3.72
2023-01-23T09:24:36.603Z,3.95
2023-01-23T09:29:38.103Z,3.99
2023-01-23T09:34:39.514Z,3.93
2023-01-23T09:39:45.198Z,3.98
2023-01-23T09:44:55.359Z,3.83
2023-01-23T09:50:02.531Z,3.88
2023-01-23T09:55:48.985Z,4.15
2023-01-23T10:00:51.891Z,4.13
2023-01-23T10:06:22.634Z,4.10
2023-01-23T10:11:38.685Z,4.24
2023-01-23T10:16:50.678Z,4.07
2023-01-23T10:22:17.101Z,4.13
2023-01-23T10:27:31.058Z,4.45
2023-01-23T10:32:46.225Z,4.21
2023-01-23T10:38:04.929Z,4.39
2023-01-23T10:43:19.568Z,4.34
2023-01-23T10:48:42.959Z,4.29
2023-01-23T10:53:44.547Z,4.47
2023-01-23T10:58:46.775Z,4.22
2023-01-23T11:03:48.260Z,4.54
2023-01-23T11:08:59.184Z,4.48
2023-01-23T11:14:06.819Z,4.54
2023-01-23T11:19:08.423Z,4.54
2023-01-23T11:24:27.837Z,4.07
2023-01-23T11:29:53.865Z,4.35
2023-01-23T11:35:10.802Z,4.40
2023-01-23T11:40:16.471Z,4.47
2023-01-23T11:45:33.428Z,4.58
2023-01-23T11:50:55.320Z,4.29
2023-01-23T11:56:06.727Z,4.36
2023-01-23T12:01:08.594Z,4.41
2023-01-23T12:06:34.312Z,4.56
2023-01-23T12:12:06.252Z,4.56
2023-01-23T12:17:10.346Z,4.34
2023-01-23T12:22:30.359Z,4.57
2023-01-23T12:27:46.808Z,4.45
2023-01-23T12:33:25.333Z,4.46
2023-01-23T12:39:01.960Z,4.43
2023-01-23T12:44:33.697Z,4.66
2023-01-23T12:49:43.533Z,4.54
2023-01-23T12:55:09.015Z,4.53
2023-01-23T13:00:28.597Z,4.44
2023-01-23T13:05:47.964Z,4.54
2023-01-23T13:11:09.379Z,4.69
2023-01-23T13:16:16.324Z,4.71
2023-01-23T13:21:18.553Z,4.72
2023-01-23T13:26:20.101Z,4.74
2023-01-23T13:31:44.626Z,4.51
2023-01-23T13:36:49.650Z,4.71
2023-01-23T13:42:13.004Z,4.63
2023-01-23T14:24:48.574Z,4.85
2023-01-23T14:30:17.573Z,4.73
2023-01-23T14:35:26.429Z,4.81
2023-01-23T14:40:33.208Z,4.83
2023-01-23T14:45:37.467Z,4.75
2023-01-23T14:50:39.254Z,4.71
2023-01-23T14:55:44.672Z,4.70
2023-01-23T15:00:47.868Z,4.64
2023-01-23T15:05:57.742Z,4.70
2023-01-23T15:11:00.656Z,4.62
2023-01-23T15:16:10.887Z,4.57
2023-01-23T15:21:25.921Z,4.59
2023-01-23T15:26:40.718Z,4.50
2023-01-23T15:31:45.078Z,4.58
2023-01-23T15:36:46.610Z,4.52
2023-01-23T15:41:55.336Z,4.59
2023-01-23T15:47:36.943Z,4.50
2023-01-23T15:52:44.517Z,4.66
2023-01-23T15:57:45.966Z,4.63
2023-01-23T16:02:56.392Z,4.53
2023-01-23T16:08:00.173Z,4.51
2023-01-23T16:13:02.086Z,4.45
2023-01-23T16:18:04.012Z,4.28
2023-01-23T16:23:15.474Z,4.40
2023-01-23T16:28:20.437Z,4.45
2023-01-23T16:33:22.222Z,4.42
2023-01-23T16:38:27.125Z,4.46
2023-01-23T16:43:28.834Z,4.43
2023-01-23T16:48:30.426Z,4.50
2023-01-23T16:53:36.880Z,4.44
2023-01-23T16:58:39.998Z,4.55
2023-01-23T17:03:41.906Z,4.56
2023-01-23T17:08:43.904Z,4.56
2023-01-23T17:13:45.642Z,4.54
2023-01-23T17:18:47.152Z,4.67
2023-01-23T17:23:48.620Z,4.50
2023-01-23T17:28:50.423Z,4.48
2023-01-23T17:33:52.325Z,4.51
2023-01-23T17:38:57.442Z,4.46
2023-01-23T17:43:58.949Z,4.48
2023-01-23T17:49:00.847Z,4.51
2023-01-23T17:54:02.334Z,4.65
2023-01-23T17:59:03.778Z,4.60
2023-01-23T18:04:18.485Z,4.41
2023-01-23T18:09:19.978Z,4.43
2023-01-23T18:14:41.807Z,4.43
2023-01-23T18:19:43.739Z,4.50
2023-01-23T18:24:45.492Z,4.40
2023-01-23T18:30:13.154Z,4.45
2023-01-23T18:35:21.263Z,4.47
2023-01-23T18:40:36.107Z,4.46
2023-01-23T18:45:37.819Z,4.34
2023-01-23T18:50:48.121Z,4.39
2023-01-23T18:56:14.977Z,4.43
2023-01-23T19:01:28.511Z,4.40
2023-01-23T19:06:30.267Z,4.24
2023-01-23T19:11:52.541Z,4.39
2023-01-23T19:17:39.193Z,4.61
2023-01-23T19:22:59.141Z,4.47
2023-01-23T19:28:02.000Z,4.44
2023-01-23T19:33:03.449Z,4.46
2023-01-23T19:38:04.854Z,4.49
2023-01-23T19:43:14.442Z,4.44
2023-01-23T19:48:16.537Z,4.44
2023-01-23T19:53:18.145Z,4.36
2023-01-23T19:58:19.731Z,4.60
2023-01-23T20:03:21.176Z,4.53
2023-01-23T20:08:22.542Z,4.49
2023-01-23T20:13:23.989Z,4.54
2023-01-23T20:18:25.450Z,4.46
2023-01-23T20:23:26.925Z,4.65
2023-01-23T20:28:29.494Z,4.45
2023-01-23T20:33:31.025Z,4.43
2023-01-23T20:38:33.326Z,4.46
2023-01-23T20:43:35.307Z,4.47
2023-01-23T20:48:38.220Z,4.45
2023-01-23T20:53:40.274Z,4.37
2023-01-23T20:58:44.189Z,4.46
2023-01-23T21:03:48.195Z,4.49
2023-01-23T21:08:49.794Z,4.47
2023-01-23T21:13:51.866Z,4.45
2023-01-23T21:18:53.286Z,4.53
2023-01-23T21:23:54.927Z,4.41
2023-01-23T21:28:57.673Z,4.35
2023-01-23T21:34:04.322Z,4.42
2023-01-23T21:39:08.590Z,4.40
2023-01-23T21:44:11.624Z,4.31
2023-01-23T21:49:13.139Z,4.39
2023-01-23T21:54:14.594Z,4.49
2023-01-23T21:59:16.038Z,4.43
2023-01-23T22:04:19.904Z,4.38
2023-01-23T22:09:23.278Z,4.34
2023-01-23T22:14:24.767Z,4.42
2023-01-23T22:19:26.266Z,4.41
2023-01-23T22:24:27.759Z,4.41
2023-01-23T22:29:29.330Z,4.49
2023-01-23T22:34:30.744Z,4.35
2023-01-23T22:39:32.478Z,4.29
2023-01-23T22:44:33.974Z,4.51
2023-01-23T22:49:35.395Z,4.47
2023-01-23T22:54:36.860Z,4.46
2023-01-23T22:59:38.702Z,4.48
2023-01-23T23:04:40.127Z,4.57
2023-01-23T23:09:41.597Z,4.46
2023-01-23T23:14:43.064Z,4.43
2023-01-23T23:19:44.515Z,3.88
2023-01-23T23:24:45.929Z,4.39
2023-01-23T23:29:47.347Z,4.42
2023-01-23T23:34:48.760Z,4.25
2023-01-23T23:39:50.294Z,4.38
2023-01-23T23:44:51.686Z,4.52
2023-01-23T23:49:53.076Z,4.51
2023-01-23T23:54:54.567Z,4.50
2023-01-23T23:59:56.041Z,4.39
